Aviation Digital Data Service (ADDS)

Output produced by METARs form (1004 UTC 19 November 2018)
found at http://www.aviationweather.gov/metar/data/
 
TAF RJFK 190506Z 1906/2012 33010KT 9999 FEW020 
     BECMG 2003/2006 14006KT 
     BECMG 2009/2012 36004KT